Terminal Aerodrome Forecast
Issued by NWS Charleston, WV

Current Version | Previous Version | Graphics & Text | Print | Product List | Glossary On
Versions: 1 2 3 4 5 6 7 8 9 10 11 12 13 14 15 16 17 18 19 20 21 22 23 24 25 26 27
000
FTUS41 KRLX 010500
TAFEKN
TAF
KEKN 010539Z 0106/0206 00000KT 6SM SHRA BR SCT020 OVC035
      TEMPO 0106/0109 5SM -SHRA BR BKN020
     FM010900 00000KT 4SM BR OVC008
     FM011000 00000KT 2SM BR OVC006
     FM011300 23004KT 4SM BR OVC010
     FM011500 25006KT P6SM BKN018
     FM011800 25008KT P6SM VCTS BKN035CB
     FM012200 VRB02KT P6SM SCT040=

USA.gov is the U.S. government's official web portal to all federal, state and local government web resources and services.